Sun City, California
Current Conditions -  °F | °C
As of 1:35 AM on Monday 24 Nov 2014 (Local Time) from KF70 Reporting Station
Clear Clear  
Wind Chill: 44°   Ceiling: Unl
Heat Index: 46°   Visibility: 10mi
Dew Point: 19°   Wind: 6mph
Humidity: 34%   Direction: 20°NNE
Pressure: 30.18"   Gusts: NA
Location:  33.71°N, 117.19°W
Report Text: KF70 240935Z AUTO 02005KT 10SM CLR 08/M07 A3018 RMK AO1
Loading
Personal Weather Stations






























Interactive Weather Map New forecast layout! Learn more

10-Day Weather Forecast

Advertisements
Track Severe Weather on mobile